createdAt,value
2018-10-18T00:00:04.271Z,780.87
2018-10-18T00:00:08.912Z,780.88
2018-10-18T00:00:13.896Z,780.9
2018-10-18T00:00:19.177Z,780.88
2018-10-18T00:00:23.274Z,780.9
2018-10-18T00:00:27.583Z,780.92
2018-10-18T00:00:31.686Z,780.89
2018-10-18T00:00:35.788Z,780.88
2018-10-18T00:00:39.988Z,780.9
2018-10-18T00:00:44.093Z,780.91
2018-10-18T00:00:48.391Z,780.9
2018-10-18T00:00:52.479Z,780.91
2018-10-18T00:00:56.676Z,780.91
2018-10-18T00:01:00.988Z,780.9
2018-10-18T00:01:05.078Z,780.88
2018-10-18T00:01:09.273Z,780.92
2018-10-18T00:01:13.624Z,780.92
2018-10-18T00:01:17.933Z,780.92
2018-10-18T00:01:22.241Z,780.91
2018-10-18T00:01:26.225Z,780.9
2018-10-18T00:01:30.326Z,780.92
2018-10-18T00:01:34.632Z,780.92
2018-10-18T00:01:38.830Z,780.95
2018-10-18T00:01:42.813Z,780.92
2018-10-18T00:01:47.010Z,780.92
2018-10-18T00:01:50.997Z,780.93
2018-10-18T00:01:55.255Z,780.96
2018-10-18T00:01:59.564Z,780.95
2018-10-18T00:02:04.263Z,780.95
2018-10-18T00:02:09.002Z,780.92
2018-10-18T00:02:13.854Z,780.9
2018-10-18T00:02:19.360Z,780.95
2018-10-18T00:02:23.469Z,780.97
2018-10-18T00:02:27.773Z,780.97
2018-10-18T00:02:32.089Z,780.98
2018-10-18T00:02:36.178Z,780.96
2018-10-18T00:02:40.161Z,780.97
2018-10-18T00:02:44.365Z,780.95
2018-10-18T00:02:48.690Z,780.95
2018-10-18T00:02:52.686Z,780.97
2018-10-18T00:02:56.903Z,780.97
2018-10-18T00:03:01.100Z,780.98
2018-10-18T00:03:05.305Z,780.98
2018-10-18T00:03:09.689Z,780.95
2018-10-18T00:03:14.212Z,780.99
2018-10-18T00:03:19.138Z,780.99
2018-10-18T00:03:24.255Z,781
2018-10-18T00:03:28.649Z,780.98
2018-10-18T00:03:34.248Z,780.99
2018-10-18T00:03:38.325Z,781.03
2018-10-18T00:03:42.523Z,781
2018-10-18T00:03:46.750Z,780.98
2018-10-18T00:03:50.845Z,781.02
2018-10-18T00:03:54.934Z,780.99
2018-10-18T00:03:59.144Z,781
2018-10-18T00:04:03.243Z,780.99
2018-10-18T00:04:07.231Z,780.99
2018-10-18T00:04:11.435Z,781.01
2018-10-18T00:04:15.753Z,780.99
2018-10-18T00:04:19.851Z,781.01
2018-10-18T00:04:24.161Z,780.99
2018-10-18T00:04:28.364Z,781.06
2018-10-18T00:04:32.348Z,781.05
2018-10-18T00:04:36.546Z,781.02
2018-10-18T00:04:40.748Z,781.03
2018-10-18T00:04:44.957Z,781.01
2018-10-18T00:04:49.167Z,781.04
2018-10-18T00:04:53.367Z,781.01
2018-10-18T00:04:57.674Z,781.04
2018-10-18T00:05:01.770Z,781.05
2018-10-18T00:05:05.862Z,781.06
2018-10-18T00:05:10.069Z,781.02
2018-10-18T00:05:14.277Z,781.03
2018-10-18T00:05:18.267Z,781.09
2018-10-18T00:05:22.260Z,781.05
2018-10-18T00:05:26.579Z,781.1
2018-10-18T00:05:30.670Z,781.04
2018-10-18T00:05:34.820Z,781.04
2018-10-18T00:05:39.014Z,781.06
2018-10-18T00:05:43.322Z,781.06
2018-10-18T00:05:47.534Z,781.06
2018-10-18T00:05:51.751Z,781.06
2018-10-18T00:05:56.184Z,781.07
2018-10-18T00:06:00.839Z,781.1
2018-10-18T00:06:05.271Z,781.07
2018-10-18T00:06:09.891Z,781.09
2018-10-18T00:06:15.023Z,781.09
2018-10-18T00:06:20.012Z,781.09
2018-10-18T00:06:24.391Z,781.09
2018-10-18T00:06:28.600Z,781.07
2018-10-18T00:06:32.800Z,781.08
2018-10-18T00:06:37.106Z,781.06
2018-10-18T00:06:41.201Z,781.1
2018-10-18T00:06:45.405Z,781.06
2018-10-18T00:06:49.602Z,781.08
2018-10-18T00:06:53.822Z,781.09
2018-10-18T00:06:57.925Z,781.1
2018-10-18T00:07:02.130Z,781.09
2018-10-18T00:07:06.222Z,781.12
2018-10-18T00:07:10.420Z,781.1
2018-10-18T00:07:14.635Z,781.1
2018-10-18T00:07:18.838Z,781.08
2018-10-18T00:07:23.038Z,781.11
2018-10-18T00:07:27.129Z,781.09
2018-10-18T00:07:31.115Z,781.09
2018-10-18T00:07:35.100Z,781.13
2018-10-18T00:07:39.188Z,781.11
2018-10-18T00:07:43.492Z,781.1
2018-10-18T00:07:47.711Z,781.08
2018-10-18T00:07:51.643Z,781.1
2018-10-18T00:07:55.968Z,781.11
2018-10-18T00:08:00.091Z,781.1
2018-10-18T00:08:04.542Z,781.08
2018-10-18T00:08:09.353Z,781.12
2018-10-18T00:08:14.307Z,781.13
2018-10-18T00:08:19.652Z,781.03
2018-10-18T00:08:23.748Z,781.05
2018-10-18T00:08:27.844Z,781.1
2018-10-18T00:08:31.828Z,781.1
2018-10-18T00:08:36.139Z,781.09
2018-10-18T00:08:40.137Z,781.09
2018-10-18T00:08:44.456Z,781.09
2018-10-18T00:08:48.655Z,781.11
2018-10-18T00:08:52.856Z,781.11
2018-10-18T00:08:57.065Z,781.09
2018-10-18T00:09:01.380Z,781.1
2018-10-18T00:09:05.364Z,781.11
2018-10-18T00:09:09.678Z,781.09
2018-10-18T00:09:13.888Z,781.08
2018-10-18T00:09:18.087Z,781.1
2018-10-18T00:09:22.180Z,781.1
2018-10-18T00:09:26.270Z,781.04
2018-10-18T00:09:30.574Z,781.02
2018-10-18T00:09:34.663Z,781.09
2018-10-18T00:09:38.653Z,781.09
2018-10-18T00:09:42.743Z,781.06
2018-10-18T00:09:46.949Z,781.07
2018-10-18T00:09:51.147Z,781.03
2018-10-18T00:09:55.136Z,781.09
2018-10-18T00:09:59.121Z,781.08
2018-10-18T00:10:03.538Z,781.05
2018-10-18T00:10:07.528Z,781.07
2018-10-18T00:10:11.740Z,781.09
2018-10-18T00:10:16.056Z,781.07
2018-10-18T00:10:20.050Z,781.08
2018-10-18T00:10:24.254Z,781.06
2018-10-18T00:10:28.563Z,781.05
2018-10-18T00:10:32.723Z,781.06
2018-10-18T00:10:36.921Z,781.06
2018-10-18T00:10:41.227Z,781.03
2018-10-18T00:10:45.215Z,781.07
2018-10-18T00:10:49.427Z,781.05
2018-10-18T00:10:53.514Z,781.07
2018-10-18T00:10:57.515Z,781.08
2018-10-18T00:11:01.722Z,781.05
2018-10-18T00:11:05.921Z,781.04
2018-10-18T00:11:10.121Z,781.05
2018-10-18T00:11:14.329Z,781.05
2018-10-18T00:11:18.637Z,781.06
2018-10-18T00:11:22.938Z,781.04
2018-10-18T00:11:27.144Z,781.05
2018-10-18T00:11:31.445Z,781.05
2018-10-18T00:11:35.763Z,781.04
2018-10-18T00:11:39.641Z,781.05
2018-10-18T00:11:43.852Z,781.04
2018-10-18T00:11:48.162Z,781.02
2018-10-18T00:11:52.267Z,781.05
2018-10-18T00:11:56.569Z,781.05
2018-10-18T00:12:01.169Z,781.06
2018-10-18T00:12:06.206Z,781.03
2018-10-18T00:12:11.290Z,781.03
2018-10-18T00:12:16.176Z,781.05
2018-10-18T00:12:20.609Z,781.02
2018-10-18T00:12:24.815Z,781.03
2018-10-18T00:12:29.024Z,781.05
2018-10-18T00:12:32.900Z,781.03
2018-10-18T00:12:37.119Z,781.04
2018-10-18T00:12:41.318Z,780.99
2018-10-18T00:12:45.515Z,780.99
2018-10-18T00:12:49.724Z,780.99
2018-10-18T00:12:53.927Z,780.99
2018-10-18T00:12:58.029Z,780.98
2018-10-18T00:13:02.142Z,780.98
2018-10-18T00:13:06.231Z,780.97
2018-10-18T00:13:10.532Z,780.99
2018-10-18T00:13:14.732Z,780.97
2018-10-18T00:13:19.054Z,781.01
2018-10-18T00:13:23.152Z,781.01
2018-10-18T00:13:27.467Z,780.99
2018-10-18T00:13:31.664Z,780.96
2018-10-18T00:13:35.864Z,781.01
2018-10-18T00:13:40.171Z,781.01
2018-10-18T00:13:44.271Z,780.97
2018-10-18T00:13:48.257Z,780.96
2018-10-18T00:13:52.668Z,781
2018-10-18T00:13:57.246Z,780.94
2018-10-18T00:14:01.692Z,780.95
2018-10-18T00:14:05.933Z,780.94
2018-10-18T00:14:10.487Z,780.95
2018-10-18T00:14:15.535Z,780.95
2018-10-18T00:14:20.485Z,780.91
2018-10-18T00:14:24.694Z,780.95
2018-10-18T00:14:28.575Z,780.92
2018-10-18T00:14:32.670Z,780.91
2018-10-18T00:14:36.985Z,780.92
2018-10-18T00:14:41.191Z,780.92
2018-10-18T00:14:45.387Z,780.85
2018-10-18T00:14:49.582Z,780.88
2018-10-18T00:14:53.882Z,780.85
2018-10-18T00:14:57.876Z,780.82
2018-10-18T00:15:02.128Z,780.87
2018-10-18T00:15:06.226Z,780.88
2018-10-18T00:15:10.211Z,780.87
2018-10-18T00:15:14.307Z,780.84
2018-10-18T00:15:18.406Z,780.82
2018-10-18T00:15:22.519Z,780.81
2018-10-18T00:15:26.611Z,780.82
2018-10-18T00:15:30.811Z,780.82
2018-10-18T00:15:35.012Z,780.81
2018-10-18T00:15:39.208Z,780.82
2018-10-18T00:15:43.191Z,780.81
2018-10-18T00:15:47.393Z,780.83
2018-10-18T00:15:51.597Z,780.78
2018-10-18T00:15:55.795Z,780.77
2018-10-18T00:15:59.887Z,780.8
2018-10-18T00:16:04.186Z,780.82
2018-10-18T00:16:08.389Z,780.81
2018-10-18T00:16:12.590Z,780.8
2018-10-18T00:16:16.895Z,780.77
2018-10-18T00:16:21.193Z,780.79
2018-10-18T00:16:25.400Z,780.79
2018-10-18T00:16:29.510Z,780.79
2018-10-18T00:16:33.598Z,780.77
2018-10-18T00:16:37.904Z,780.78
2018-10-18T00:16:42.198Z,780.77
2018-10-18T00:16:46.406Z,780.78
2018-10-18T00:16:50.721Z,780.75
2018-10-18T00:16:55.085Z,780.73
2018-10-18T00:16:59.296Z,780.71
2018-10-18T00:17:03.558Z,780.75
2018-10-18T00:17:07.331Z,780.75
2018-10-18T00:17:11.642Z,780.75
2018-10-18T00:17:15.947Z,780.66
2018-10-18T00:17:20.046Z,780.7
2018-10-18T00:17:24.137Z,780.74
2018-10-18T00:17:28.341Z,780.72
2018-10-18T00:17:32.656Z,780.72
2018-10-18T00:17:36.854Z,780.75
2018-10-18T00:17:40.948Z,780.71
2018-10-18T00:17:45.174Z,780.68
2018-10-18T00:17:49.370Z,780.66
2018-10-18T00:17:53.768Z,780.64
2018-10-18T00:17:58.190Z,780.66
2018-10-18T00:18:02.811Z,780.65
2018-10-18T00:18:07.346Z,780.7
2018-10-18T00:18:11.816Z,780.66
2018-10-18T00:18:16.794Z,780.65
2018-10-18T00:18:20.970Z,780.67
2018-10-18T00:18:24.973Z,780.67
2018-10-18T00:18:29.066Z,780.65
2018-10-18T00:18:33.158Z,780.64
2018-10-18T00:18:37.147Z,780.67
2018-10-18T00:18:41.357Z,780.67
2018-10-18T00:18:45.657Z,780.63
2018-10-18T00:18:49.860Z,780.63
2018-10-18T00:18:54.112Z,780.7
2018-10-18T00:18:58.203Z,780.61
2018-10-18T00:19:02.417Z,780.59
2018-10-18T00:19:06.408Z,780.59
2018-10-18T00:19:10.498Z,780.62
2018-10-18T00:19:14.595Z,780.59
2018-10-18T00:19:18.905Z,780.61
2018-10-18T00:19:23.215Z,780.58
2018-10-18T00:19:27.093Z,780.59
2018-10-18T00:19:31.400Z,780.59
2018-10-18T00:19:35.488Z,780.59
2018-10-18T00:19:39.682Z,780.56
2018-10-18T00:19:43.892Z,780.58
2018-10-18T00:19:47.980Z,780.56
2018-10-18T00:19:52.353Z,780.59
2018-10-18T00:19:56.827Z,780.55
2018-10-18T00:20:01.473Z,780.56
2018-10-18T00:20:06.057Z,780.56
2018-10-18T00:20:11.161Z,780.51
2018-10-18T00:20:16.337Z,780.53
2018-10-18T00:20:20.845Z,780.5
2018-10-18T00:20:24.935Z,780.53
2018-10-18T00:20:29.244Z,780.51
2018-10-18T00:20:33.445Z,780.5
2018-10-18T00:20:37.638Z,780.51
2018-10-18T00:20:41.733Z,780.51
2018-10-18T00:20:46.049Z,780.51
2018-10-18T00:20:50.370Z,780.51
2018-10-18T00:20:54.573Z,780.5
2018-10-18T00:20:58.669Z,780.48
2018-10-18T00:21:02.928Z,780.5
2018-10-18T00:21:07.125Z,780.47
2018-10-18T00:21:11.222Z,780.51
2018-10-18T00:21:15.420Z,780.48
2018-10-18T00:21:19.510Z,780.49
2018-10-18T00:21:23.813Z,780.48
2018-10-18T00:21:28.116Z,780.5
2018-10-18T00:21:32.314Z,780.49
2018-10-18T00:21:36.404Z,780.47
2018-10-18T00:21:40.608Z,780.48
2018-10-18T00:21:44.816Z,780.45
2018-10-18T00:21:49.126Z,780.45
2018-10-18T00:21:53.328Z,780.48
2018-10-18T00:21:57.526Z,780.43
2018-10-18T00:22:01.833Z,780.45
2018-10-18T00:22:05.928Z,780.45
2018-10-18T00:22:10.125Z,780.42
2018-10-18T00:22:14.232Z,780.45
2018-10-18T00:22:18.534Z,780.41
2018-10-18T00:22:22.522Z,780.42
2018-10-18T00:22:26.714Z,780.39
2018-10-18T00:22:30.698Z,780.42
2018-10-18T00:22:35.007Z,780.44
2018-10-18T00:22:39.205Z,780.43
2018-10-18T00:22:43.535Z,780.43
2018-10-18T00:22:47.736Z,780.42
2018-10-18T00:22:52.068Z,780.4
2018-10-18T00:22:56.160Z,780.37
2018-10-18T00:23:00.357Z,780.4
2018-10-18T00:23:04.567Z,780.4
2018-10-18T00:23:08.776Z,780.38
2018-10-18T00:23:13.085Z,780.36
2018-10-18T00:23:17.284Z,780.33
2018-10-18T00:23:21.480Z,780.36
2018-10-18T00:23:25.683Z,780.36
2018-10-18T00:23:29.996Z,780.37
2018-10-18T00:23:34.318Z,780.34
2018-10-18T00:23:38.626Z,780.34
2018-10-18T00:23:42.940Z,780.29
2018-10-18T00:23:47.151Z,780.33
2018-10-18T00:23:51.455Z,780.31
2018-10-18T00:23:55.588Z,780.3
2018-10-18T00:23:59.876Z,780.31
2018-10-18T00:24:04.622Z,780.31
2018-10-18T00:24:09.667Z,780.31
2018-10-18T00:24:15.136Z,780.26
2018-10-18T00:24:19.541Z,780.28
2018-10-18T00:24:23.763Z,780.27
2018-10-18T00:24:28.082Z,780.3
2018-10-18T00:24:32.285Z,780.27
2018-10-18T00:24:36.484Z,780.25
2018-10-18T00:24:40.683Z,780.27
2018-10-18T00:24:44.931Z,780.26
2018-10-18T00:24:49.251Z,780.25
2018-10-18T00:24:53.454Z,780.2
2018-10-18T00:24:57.440Z,780.2
2018-10-18T00:25:01.891Z,780.19
2018-10-18T00:25:06.014Z,780.19
2018-10-18T00:25:10.219Z,780.23
2018-10-18T00:25:14.322Z,780.19
2018-10-18T00:25:18.625Z,780.22
2018-10-18T00:25:22.827Z,780.24
2018-10-18T00:25:27.037Z,780.22
2018-10-18T00:25:31.026Z,780.21
2018-10-18T00:25:35.275Z,780.18
2018-10-18T00:25:39.373Z,780.23
2018-10-18T00:25:43.582Z,780.2
2018-10-18T00:25:47.794Z,780.21
2018-10-18T00:25:51.791Z,780.22
2018-10-18T00:25:56.123Z,780.2
2018-10-18T00:26:00.363Z,780.19
2018-10-18T00:26:05.068Z,780.21
2018-10-18T00:26:09.614Z,780.16
2018-10-18T00:26:14.514Z,780.19
2018-10-18T00:26:19.570Z,780.13
2018-10-18T00:26:23.768Z,780.16
2018-10-18T00:26:28.084Z,780.16
2018-10-18T00:26:32.281Z,780.17
2018-10-18T00:26:36.480Z,780.13
2018-10-18T00:26:40.686Z,780.13
2018-10-18T00:26:45.018Z,780.12
2018-10-18T00:26:49.250Z,780.12
2018-10-18T00:26:53.349Z,780.14
2018-10-18T00:26:57.553Z,780.12
2018-10-18T00:27:01.757Z,780.15
2018-10-18T00:27:05.904Z,780.11
2018-10-18T00:27:09.888Z,780.07
2018-10-18T00:27:14.192Z,780.09
2018-10-18T00:27:18.391Z,780.11
2018-10-18T00:27:22.701Z,780.13
2018-10-18T00:27:26.906Z,780.12
2018-10-18T00:27:30.995Z,780.07
2018-10-18T00:27:34.977Z,780.11
2018-10-18T00:27:39.184Z,780.09
2018-10-18T00:27:43.493Z,780.1
2018-10-18T00:27:47.687Z,780.11
2018-10-18T00:27:51.986Z,780.1
2018-10-18T00:27:56.184Z,780.11
2018-10-18T00:28:00.483Z,780.11
2018-10-18T00:28:04.782Z,780.07
2018-10-18T00:28:08.872Z,780.07
2018-10-18T00:28:13.074Z,780.12
2018-10-18T00:28:17.167Z,780.09
2018-10-18T00:28:21.472Z,780.09
2018-10-18T00:28:25.771Z,780.09
2018-10-18T00:28:29.972Z,780.09
2018-10-18T00:28:34.168Z,780.1
2018-10-18T00:28:38.477Z,780.04
2018-10-18T00:28:42.727Z,780.1
2018-10-18T00:28:46.934Z,780.09
2018-10-18T00:28:51.245Z,780.08
2018-10-18T00:28:55.447Z,780.1
2018-10-18T00:28:59.551Z,780.1
2018-10-18T00:29:03.543Z,780.1
2018-10-18T00:29:07.853Z,780.08
2018-10-18T00:29:12.154Z,780.08
2018-10-18T00:29:16.361Z,780.08
2018-10-18T00:29:20.682Z,780.09
2018-10-18T00:29:24.999Z,780.03
2018-10-18T00:29:29.095Z,780.08
2018-10-18T00:29:33.081Z,780.11
2018-10-18T00:29:37.182Z,780.09
2018-10-18T00:29:41.493Z,780.1
2018-10-18T00:29:45.585Z,780.09
2018-10-18T00:29:49.896Z,780.08
2018-10-18T00:29:54.271Z,780.06
2018-10-18T00:29:58.757Z,780.08
2018-10-18T00:30:03.710Z,780.04
2018-10-18T00:30:08.356Z,780.08
2018-10-18T00:30:13.310Z,780.09
2018-10-18T00:30:18.839Z,780.06
2018-10-18T00:30:23.339Z,780.09
2018-10-18T00:30:27.644Z,780.06
2018-10-18T00:30:31.736Z,780.09
2018-10-18T00:30:35.844Z,780.09
2018-10-18T00:30:39.938Z,780.09
2018-10-18T00:30:44.152Z,780.08
2018-10-18T00:30:48.248Z,780.1
2018-10-18T00:30:52.571Z,780.02
2018-10-18T00:30:56.776Z,780.01
2018-10-18T00:31:01.083Z,780.07
2018-10-18T00:31:05.410Z,780.08
2018-10-18T00:31:09.409Z,780.08
2018-10-18T00:31:13.608Z,780.08
2018-10-18T00:31:17.722Z,780.04
2018-10-18T00:31:21.818Z,780.02
2018-10-18T00:31:26.030Z,780.09
2018-10-18T00:31:30.125Z,780.03
2018-10-18T00:31:34.434Z,780.03
2018-10-18T00:31:38.745Z,780.04
2018-10-18T00:31:43.052Z,780.05
2018-10-18T00:31:47.145Z,780.02
2018-10-18T00:31:51.343Z,780.01
2018-10-18T00:31:55.897Z,780.02
2018-10-18T00:32:00.046Z,780.04
2018-10-18T00:32:04.642Z,780.01
2018-10-18T00:32:09.845Z,780
2018-10-18T00:32:14.886Z,779.96
2018-10-18T00:32:19.453Z,779.97
2018-10-18T00:32:23.767Z,779.98
2018-10-18T00:32:27.972Z,780.03
2018-10-18T00:32:32.282Z,780.01
2018-10-18T00:32:36.485Z,779.97
2018-10-18T00:32:40.783Z,779.99
2018-10-18T00:32:45.088Z,779.99
2018-10-18T00:32:49.345Z,780.02
2018-10-18T00:32:53.445Z,779.99
2018-10-18T00:32:57.544Z,779.99
2018-10-18T00:33:01.848Z,779.96
2018-10-18T00:33:05.836Z,779.99
2018-10-18T00:33:10.159Z,779.97
2018-10-18T00:33:14.475Z,779.97
2018-10-18T00:33:18.789Z,779.96
2018-10-18T00:33:23.102Z,779.94
2018-10-18T00:33:27.201Z,779.89
2018-10-18T00:33:31.399Z,779.92
2018-10-18T00:33:35.495Z,779.93
2018-10-18T00:33:39.816Z,779.88
2018-10-18T00:33:44.128Z,779.93
2018-10-18T00:33:48.327Z,779.92
2018-10-18T00:33:52.527Z,779.86
2018-10-18T00:33:56.735Z,779.9
2018-10-18T00:34:00.933Z,779.9
2018-10-18T00:34:05.050Z,779.86
2018-10-18T00:34:09.374Z,779.9
2018-10-18T00:34:13.368Z,779.88
2018-10-18T00:34:17.575Z,779.9
2018-10-18T00:34:21.784Z,779.86
2018-10-18T00:34:25.782Z,779.86
2018-10-18T00:34:29.997Z,779.94
2018-10-18T00:34:34.312Z,779.9
2018-10-18T00:34:38.619Z,779.9
2018-10-18T00:34:42.819Z,779.91
2018-10-18T00:34:46.913Z,779.9
2018-10-18T00:34:51.121Z,779.88
2018-10-18T00:34:55.221Z,779.91
2018-10-18T00:34:59.316Z,779.86
2018-10-18T00:35:03.428Z,779.88
2018-10-18T00:35:07.636Z,779.88
2018-10-18T00:35:11.842Z,779.87
2018-10-18T00:35:16.147Z,779.89
2018-10-18T00:35:20.459Z,779.88
2018-10-18T00:35:24.452Z,779.88
2018-10-18T00:35:28.548Z,779.86
2018-10-18T00:35:32.540Z,779.87
2018-10-18T00:35:36.848Z,779.88
2018-10-18T00:35:41.093Z,779.87
2018-10-18T00:35:45.188Z,779.87
2018-10-18T00:35:49.391Z,779.83
2018-10-18T00:35:53.760Z,779.85
2018-10-18T00:35:57.920Z,779.84
2018-10-18T00:36:02.781Z,779.87
2018-10-18T00:36:07.398Z,779.88
2018-10-18T00:36:12.523Z,779.82
2018-10-18T00:36:17.782Z,779.83
2018-10-18T00:36:21.847Z,779.84
2018-10-18T00:36:26.157Z,779.83
2018-10-18T00:36:30.362Z,779.85
2018-10-18T00:36:34.679Z,779.84
2018-10-18T00:36:39.015Z,779.84
2018-10-18T00:36:43.256Z,779.85
2018-10-18T00:36:47.562Z,779.83
2018-10-18T00:36:51.871Z,779.81
2018-10-18T00:36:56.079Z,779.84
2018-10-18T00:37:00.387Z,779.82
2018-10-18T00:37:04.396Z,779.84
2018-10-18T00:37:08.593Z,779.83
2018-10-18T00:37:12.810Z,779.82
2018-10-18T00:37:17.126Z,779.83
2018-10-18T00:37:21.432Z,779.86
2018-10-18T00:37:25.745Z,779.83
2018-10-18T00:37:29.944Z,779.84
2018-10-18T00:37:34.044Z,779.82
2018-10-18T00:37:38.359Z,779.85
2018-10-18T00:37:42.688Z,779.86
2018-10-18T00:37:47.036Z,779.85
2018-10-18T00:37:51.354Z,779.82
2018-10-18T00:37:55.914Z,779.82
2018-10-18T00:38:00.363Z,779.84
2018-10-18T00:38:05.171Z,779.82
2018-10-18T00:38:10.047Z,779.78
2018-10-18T00:38:15.083Z,779.79
2018-10-18T00:38:19.688Z,779.81
2018-10-18T00:38:24.020Z,779.8
2018-10-18T00:38:28.113Z,779.81
2018-10-18T00:38:32.422Z,779.74
2018-10-18T00:38:36.737Z,779.71
2018-10-18T00:38:40.834Z,779.73
2018-10-18T00:38:45.039Z,779.79
2018-10-18T00:38:49.237Z,779.8
2018-10-18T00:38:53.545Z,779.78
2018-10-18T00:38:57.738Z,779.77
2018-10-18T00:39:01.940Z,779.76
2018-10-18T00:39:06.024Z,779.76
2018-10-18T00:39:10.116Z,779.76
2018-10-18T00:39:14.316Z,779.78
2018-10-18T00:39:18.524Z,779.77
2018-10-18T00:39:22.623Z,779.75
2018-10-18T00:39:26.826Z,779.78
2018-10-18T00:39:31.022Z,779.78
2018-10-18T00:39:35.220Z,779.74
2018-10-18T00:39:39.526Z,779.79
2018-10-18T00:39:43.620Z,779.77
2018-10-18T00:39:47.830Z,779.74
2018-10-18T00:39:51.927Z,779.71
2018-10-18T00:39:55.909Z,779.73
2018-10-18T00:40:00.221Z,779.71
2018-10-18T00:40:04.242Z,779.7
2018-10-18T00:40:08.344Z,779.69
2018-10-18T00:40:12.697Z,779.7
2018-10-18T00:40:17.006Z,779.66
2018-10-18T00:40:21.306Z,779.67
2018-10-18T00:40:25.391Z,779.65
2018-10-18T00:40:29.601Z,779.67
2018-10-18T00:40:33.688Z,779.68
2018-10-18T00:40:37.790Z,779.67
2018-10-18T00:40:42.103Z,779.71
2018-10-18T00:40:46.302Z,779.66
2018-10-18T00:40:50.606Z,779.69
2018-10-18T00:40:54.906Z,779.66
2018-10-18T00:40:59.105Z,779.68
2018-10-18T00:41:03.131Z,779.64
2018-10-18T00:41:07.434Z,779.67
2018-10-18T00:41:11.634Z,779.65
2018-10-18T00:41:15.840Z,779.63
2018-10-18T00:41:20.146Z,779.63
2018-10-18T00:41:24.240Z,779.67
2018-10-18T00:41:28.226Z,779.62
2018-10-18T00:41:32.428Z,779.62
2018-10-18T00:41:36.753Z,779.61
2018-10-18T00:41:40.946Z,779.61
2018-10-18T00:41:45.260Z,779.6
2018-10-18T00:41:49.577Z,779.62
2018-10-18T00:41:53.607Z,779.6
2018-10-18T00:41:57.974Z,779.61
2018-10-18T00:42:02.640Z,779.63
2018-10-18T00:42:07.664Z,779.6
2018-10-18T00:42:12.319Z,779.6
2018-10-18T00:42:17.428Z,779.58
2018-10-18T00:42:21.755Z,779.62
2018-10-18T00:42:25.958Z,779.54
2018-10-18T00:42:30.262Z,779.58
2018-10-18T00:42:34.358Z,779.58
2018-10-18T00:42:38.454Z,779.54
2018-10-18T00:42:42.682Z,779.56
2018-10-18T00:42:46.999Z,779.6
2018-10-18T00:42:51.306Z,779.57
2018-10-18T00:42:55.504Z,779.56
2018-10-18T00:42:59.709Z,779.56
2018-10-18T00:43:03.810Z,779.56
2018-10-18T00:43:08.003Z,779.56
2018-10-18T00:43:12.104Z,779.59
2018-10-18T00:43:16.408Z,779.56
2018-10-18T00:43:20.614Z,779.57
2018-10-18T00:43:24.819Z,779.57
2018-10-18T00:43:29.024Z,779.56
2018-10-18T00:43:33.224Z,779.57
2018-10-18T00:43:37.421Z,779.58
2018-10-18T00:43:41.625Z,779.59
2018-10-18T00:43:45.723Z,779.6
2018-10-18T00:43:49.822Z,779.58
2018-10-18T00:43:54.127Z,779.53
2018-10-18T00:43:58.264Z,779.58
2018-10-18T00:44:02.607Z,779.59
2018-10-18T00:44:07.435Z,779.54
2018-10-18T00:44:12.657Z,779.55
2018-10-18T00:44:17.722Z,779.58
2018-10-18T00:44:22.371Z,779.53
2018-10-18T00:44:26.464Z,779.55
2018-10-18T00:44:30.665Z,779.58
2018-10-18T00:44:34.873Z,779.58
2018-10-18T00:44:39.182Z,779.59
2018-10-18T00:44:43.400Z,779.57
2018-10-18T00:44:47.732Z,779.6
2018-10-18T00:44:51.937Z,779.61
2018-10-18T00:44:56.243Z,779.58
2018-10-18T00:45:00.443Z,779.58
2018-10-18T00:45:04.799Z,779.57
2018-10-18T00:45:08.904Z,779.58
2018-10-18T00:45:13.118Z,779.57
2018-10-18T00:45:17.219Z,779.58
2018-10-18T00:45:21.534Z,779.56
2018-10-18T00:45:25.622Z,779.56
2018-10-18T00:45:29.929Z,779.58
2018-10-18T00:45:33.912Z,779.58
2018-10-18T00:45:38.224Z,779.61
2018-10-18T00:45:42.319Z,779.61
2018-10-18T00:45:46.526Z,779.6
2018-10-18T00:45:50.730Z,779.6
2018-10-18T00:45:55.033Z,779.64
2018-10-18T00:45:59.339Z,779.64
2018-10-18T00:46:03.357Z,779.62
2018-10-18T00:46:07.672Z,779.6
2018-10-18T00:46:11.988Z,779.61
2018-10-18T00:46:16.301Z,779.59
2018-10-18T00:46:20.500Z,779.59
2018-10-18T00:46:24.814Z,779.59
2018-10-18T00:46:29.124Z,779.57
2018-10-18T00:46:33.221Z,779.55
2018-10-18T00:46:37.418Z,779.63
2018-10-18T00:46:41.616Z,779.6
2018-10-18T00:46:45.710Z,779.59
2018-10-18T00:46:49.802Z,779.58
2018-10-18T00:46:54.011Z,779.61
2018-10-18T00:46:58.109Z,779.61
2018-10-18T00:47:02.418Z,779.61
2018-10-18T00:47:06.622Z,779.61
2018-10-18T00:47:10.613Z,779.62
2018-10-18T00:47:14.941Z,779.61
2018-10-18T00:47:19.037Z,779.63
2018-10-18T00:47:23.341Z,779.67
2018-10-18T00:47:27.645Z,779.62
2018-10-18T00:47:31.841Z,779.64
2018-10-18T00:47:36.039Z,779.65
2018-10-18T00:47:40.234Z,779.66
2018-10-18T00:47:44.325Z,779.63
2018-10-18T00:47:48.522Z,779.65
2018-10-18T00:47:52.773Z,779.65
2018-10-18T00:47:57.403Z,779.68
2018-10-18T00:48:02.058Z,779.66
2018-10-18T00:48:06.586Z,779.68
2018-10-18T00:48:11.043Z,779.68
2018-10-18T00:48:16.419Z,779.66
2018-10-18T00:48:20.844Z,779.68
2018-10-18T00:48:25.050Z,779.65
2018-10-18T00:48:29.356Z,779.64
2018-10-18T00:48:33.665Z,779.68
2018-10-18T00:48:37.875Z,779.64
2018-10-18T00:48:42.184Z,779.73
2018-10-18T00:48:46.396Z,779.72
2018-10-18T00:48:50.500Z,779.7
2018-10-18T00:48:54.604Z,779.71
2018-10-18T00:48:58.802Z,779.7
2018-10-18T00:49:02.913Z,779.7
2018-10-18T00:49:07.215Z,779.73
2018-10-18T00:49:11.416Z,779.74
2018-10-18T00:49:15.727Z,779.75
2018-10-18T00:49:19.815Z,779.72
2018-10-18T00:49:24.017Z,779.73
2018-10-18T00:49:28.358Z,779.7
2018-10-18T00:49:32.449Z,779.69
2018-10-18T00:49:36.770Z,779.76
2018-10-18T00:49:40.756Z,779.75
2018-10-18T00:49:44.959Z,779.78
2018-10-18T00:49:49.267Z,779.8
2018-10-18T00:49:53.659Z,779.79
2018-10-18T00:49:57.900Z,779.79
2018-10-18T00:50:02.750Z,779.77
2018-10-18T00:50:07.098Z,779.8
2018-10-18T00:50:12.650Z,779.79
2018-10-18T00:50:16.928Z,779.78
2018-10-18T00:50:21.636Z,779.78
2018-10-18T00:50:25.627Z,779.79
2018-10-18T00:50:29.983Z,779.79
2018-10-18T00:50:34.076Z,779.81
2018-10-18T00:50:38.380Z,779.8
2018-10-18T00:50:42.686Z,779.83
2018-10-18T00:50:46.778Z,779.8
2018-10-18T00:50:50.868Z,779.83
2018-10-18T00:50:55.075Z,779.83
2018-10-18T00:50:59.278Z,779.82
2018-10-18T00:51:03.589Z,779.84
2018-10-18T00:51:07.900Z,779.83
2018-10-18T00:51:12.226Z,779.81
2018-10-18T00:51:16.319Z,779.81
2018-10-18T00:51:20.522Z,779.82
2018-10-18T00:51:24.837Z,779.82
2018-10-18T00:51:29.034Z,779.82
2018-10-18T00:51:33.137Z,779.88
2018-10-18T00:51:37.233Z,779.88
2018-10-18T00:51:41.538Z,779.85
2018-10-18T00:51:45.845Z,779.85
2018-10-18T00:51:50.149Z,779.92
2018-10-18T00:51:54.461Z,779.85
2018-10-18T00:51:58.593Z,779.89
2018-10-18T00:52:02.585Z,779.89
2018-10-18T00:52:06.676Z,779.9
2018-10-18T00:52:10.767Z,779.88
2018-10-18T00:52:14.967Z,779.91
2018-10-18T00:52:19.272Z,779.91
2018-10-18T00:52:23.474Z,779.91
2018-10-18T00:52:27.781Z,779.91
2018-10-18T00:52:31.981Z,779.9
2018-10-18T00:52:36.071Z,779.92
2018-10-18T00:52:40.167Z,779.94
2018-10-18T00:52:44.367Z,779.93
2018-10-18T00:52:48.597Z,779.91
2018-10-18T00:52:52.691Z,779.94
2018-10-18T00:52:56.890Z,779.92
2018-10-18T00:53:01.091Z,779.94
2018-10-18T00:53:05.405Z,779.94
2018-10-18T00:53:09.452Z,779.92
2018-10-18T00:53:13.545Z,779.93
2018-10-18T00:53:17.858Z,779.94
2018-10-18T00:53:22.054Z,779.94
2018-10-18T00:53:26.359Z,779.93
2018-10-18T00:53:30.668Z,779.93